Saturday, January 20, 2018, 3:05 PM GMT
Back to Local

CWRK, Bancroft Automatic Weather Reporting System

Location: , , Canada Lat: 45.067
Local Time: 3:05 PM GMT (15:05 GMT) Lon: -77.867
Time Zone: GMT Elev: 1085 ft

Show me the last for .
Show Decoded

2018-01-20 14:00 METAR CWRK 201400Z AUTO 25005KT 02/M03 RMK AO1 SOG 04 3027 PK WND 28017/1342
                 SLP044 T00171028 =
2018-01-20 13:00 METAR CWRK 201300Z AUTO 27005KT 01/M03 RMK AO1 SOG 04 1031 SLP032 T00141032 =
2018-01-20 12:00 METAR CWRK 201200Z AUTO 26005KT 01/M04 RMK AO1 SOG 04 3024 SLP024 T00131035 =
2018-01-20 11:00 METAR CWRK 201100Z AUTO 27003KT 01/M04 RMK AO1 SOG 04 3021 SLP016 T00101039 =
2018-01-20 10:00 METAR CWRK 201000Z AUTO 25005KT 01/M05 RMK AO1 SOG 04 3004 PK WND 18018/0905
                 SLP000 T00051046 =
2018-01-20 09:00 METAR CWRK 200900Z AUTO 25005KT M00/M05 RMK AO1 SOG 04 5007 SLP999 T10011052 =
2018-01-20 08:00 METAR CWRK 200800Z AUTO 23005KT M00/M06 RMK AO1 SOG 04 6016 SLP994 T10011056 =
2018-01-20 07:00 METAR CWRK 200700Z AUTO 21003KT M01/M06 RMK AO1 SOG 04 8023 SLP997 T10061059 =
2018-01-20 06:00 METAR CWRK 200600Z AUTO 22004KT M01/M06 RMK AO1 SOG 04 6023 SLP008 T10101061 =
2018-01-20 05:00 METAR CWRK 200500Z AUTO 21005KT M01/M06 RMK AO1 SOG 04 8026 SLP012 T10111061 =
2018-01-20 04:00 METAR CWRK 200400Z AUTO 21005KT M01/M06 RMK AO1 SOG 04 8026 SLP022 T10141058 =
2018-01-20 03:00 METAR CWRK 200300Z AUTO 21004KT M02/M05 RMK AO1 SOG 04 6026 SLP033 T10171054 =
2018-01-20 02:00 METAR CWRK 200200Z AUTO 20004KT M02/M05 RMK AO1 SOG 04 6029 SLP041 T10201054 =
2018-01-20 01:00 METAR CWRK 200100Z AUTO 20004KT M02/M06 RMK AO1 SOG 04 8022 SLP050 T10221055 =
2018-01-20 00:00 METAR CWRK 200000Z AUTO 19004KT M02/M06 RMK AO1 SOG 04 8011 SLP061 T10221061 =
2018-01-19 23:00 METAR CWRK 192300Z AUTO 21005KT M02/M06 RMK AO1 SOG 04 6005 SLP071 T10211055 =
2018-01-19 22:00 METAR CWRK 192200Z AUTO 21003KT M02/M06 RMK AO1 SOG 04 5009 SLP073 T10161059 =
2018-01-19 21:00 METAR CWRK 192100Z AUTO 20004KT M02/M06 RMK AO1 SOG 04 6016 SLP072 T10161057 =
2018-01-19 20:00 METAR CWRK 192000Z AUTO 19003KT M02/M06 RMK AO1 SOG 04 6024 SLP077 T10221058 =
2018-01-19 19:00 METAR CWRK 191900Z AUTO 20004KT M03/M06 RMK AO1 SOG 04 6025 SLP083 T10301057 =
2018-01-19 18:00 METAR CWRK 191800Z AUTO 18003KT M04/M05 RMK AO1 SOG 04 8023 SLP090 T10371053 =
2018-01-19 17:00 METAR CWRK 191700Z AUTO 21003KT M04/M05 RMK AO1 SOG 04 8009 SLP103 T10431053 =
2018-01-19 16:00 METAR CWRK 191600Z AUTO 20003KT M05/M06 RMK AO1 SOG 04 0003 SLP110 T10481055 =

Support USWX by starting your Amazon purchase here.